Time;durP1;ratioP1;P1;durP2;ratioP2;P2;SDS_P1;SDS_P2;PMS_P1;PMS_P2;Temp;Humidity;BMP_temperature;BMP_pressure;BME280_temperature;BME280_humidity;BME280_pressure;Samples;Min_cycle;Max_cycle;Signal;HPM_P1;HPM_P2
2022/08/05 00:02:03;;;;;;;6.55;3.00;;;;;;;20.61;80.55;101112.97;5022006;28;20041;-76
2022/08/05 00:04:29;;;;;;;9.32;3.20;;;;;;;20.54;81.61;101125.34;5008541;28;20033;-76
2022/08/05 00:06:54;;;;;;;7.72;2.53;;;;;;;20.50;81.77;101131.25;5009023;28;20045;-76
2022/08/05 00:09:20;;;;;;;6.18;2.90;;;;;;;20.40;81.41;101127.25;4989598;28;20505;-75
2022/08/05 00:11:46;;;;;;;4.90;2.50;;;;;;;20.39;81.88;101127.47;5053119;23;21769;-76
2022/08/05 00:14:12;;;;;;;7.75;2.95;;;;;;;20.37;81.45;101119.78;5011569;28;20064;-78
2022/08/05 00:16:37;;;;;;;7.15;2.72;;;;;;;20.33;81.91;101130.97;5025284;28;20393;-80
2022/08/05 00:19:03;;;;;;;5.03;3.08;;;;;;;20.21;82.50;101136.06;5015931;28;20037;-79
2022/08/05 00:21:28;;;;;;;6.88;2.90;;;;;;;20.11;82.69;101141.00;5043531;28;20037;-78
2022/08/05 00:23:54;;;;;;;6.32;3.70;;;;;;;20.02;82.71;101132.53;5035262;28;20041;-77
2022/08/05 00:26:20;;;;;;;8.13;3.13;;;;;;;19.99;83.05;101125.09;5043714;28;20037;-77
2022/08/05 00:28:45;;;;;;;4.10;2.60;;;;;;;19.97;83.06;101119.22;5028592;28;21549;-77
2022/08/05 00:31:11;;;;;;;8.52;2.70;;;;;;;19.89;83.28;101122.09;5048635;28;20056;-79
2022/08/05 00:33:37;;;;;;;5.18;2.47;;;;;;;19.89;84.07;101127.34;5031567;28;20029;-79
2022/08/05 00:36:03;;;;;;;6.20;3.63;;;;;;;19.78;84.64;101123.56;5046228;28;20499;-76
2022/08/05 00:38:28;;;;;;;5.38;3.53;;;;;;;19.74;84.31;101125.81;5045104;28;20639;-78
2022/08/05 00:40:57;;;;;;;8.90;4.22;;;;;;;19.62;85.22;101125.59;5045859;28;20086;-79
2022/08/05 00:43:23;;;;;;;8.02;3.33;;;;;;;19.55;85.61;101127.47;5047895;28;20060;-80
2022/08/05 00:45:48;;;;;;;6.30;3.50;;;;;;;19.51;86.07;101131.50;5033134;28;20032;-76
2022/08/05 00:48:18;;;;;;;7.63;3.22;;;;;;;19.43;86.60;101131.75;5047720;28;20040;-77
2022/08/05 00:50:46;;;;;;;7.18;3.53;;;;;;;19.33;87.18;101126.91;5050526;28;20040;-76
2022/08/05 00:53:12;;;;;;;13.27;3.95;;;;;;;19.30;87.45;101124.69;5033721;28;20029;-78
2022/08/05 00:55:37;;;;;;;7.93;4.60;;;;;;;19.19;88.03;101127.94;5048405;28;20170;-78
2022/08/05 00:58:03;;;;;;;8.90;3.67;;;;;;;19.15;88.38;101126.75;5047803;28;20477;-79
2022/08/05 01:00:29;;;;;;;7.22;3.90;;;;;;;19.13;88.87;101119.06;5046465;28;20039;-78
2022/08/05 01:02:57;;;;;;;7.43;3.50;;;;;;;19.06;89.25;101119.09;5044793;28;20114;-78
2022/08/05 01:05:23;;;;;;;5.45;3.78;;;;;;;19.14;88.95;101123.31;5046617;28;20048;-77
2022/08/05 01:07:49;;;;;;;8.85;4.43;;;;;;;19.07;89.52;101130.41;5047376;28;20025;-78
2022/08/05 01:10:17;;;;;;;6.15;4.07;;;;;;;19.06;89.66;101126.97;5049474;28;20108;-78
2022/08/05 01:12:47;;;;;;;9.73;4.93;;;;;;;19.03;89.53;101123.94;5049093;28;20551;-80
2022/08/05 01:15:16;;;;;;;12.30;3.85;;;;;;;18.97;89.88;101120.31;5045083;28;20104;-78
2022/08/05 01:17:48;;;;;;;5.22;3.47;;;;;;;19.00;90.25;101109.38;5027093;28;20452;-77
2022/08/05 01:20:29;;;;;;;9.43;4.32;;;;;;;18.99;90.26;101099.88;5047130;28;20131;-76
2022/08/05 01:23:07;;;;;;;8.38;4.40;;;;;;;18.84;90.98;101099.31;5064849;28;20048;-80
2022/08/05 01:26:15;;;;;;;8.18;3.90;;;;;;;18.90;90.76;101103.72;5030774;28;20086;-78
2022/08/05 01:28:46;;;;;;;9.15;4.65;;;;;;;18.88;91.33;101111.00;5027086;28;20131;-78
2022/08/05 01:31:26;;;;;;;8.23;4.25;;;;;;;18.79;91.87;101117.44;5049414;28;20516;-77
2022/08/05 01:34:18;;;;;;;8.38;4.40;;;;;;;18.84;91.55;101121.13;5047424;28;20037;-77
2022/08/05 01:36:48;;;;;;;10.75;5.13;;;;;;;18.86;91.08;101118.28;5042509;28;20029;-78
2022/08/05 01:39:15;;;;;;;8.65;4.38;;;;;;;18.92;90.98;101127.97;5040432;28;20037;-76
2022/08/05 01:41:42;;;;;;;6.80;4.10;;;;;;;18.93;90.92;101150.63;5046080;28;20067;-79
2022/08/05 01:44:09;;;;;;;7.82;4.13;;;;;;;19.01;90.94;101165.38;5046857;28;21448;-77
2022/08/05 01:46:35;;;;;;;12.82;4.70;;;;;;;18.99;91.07;101189.22;5029337;28;20029;-78
2022/08/05 01:49:02;;;;;;;16.33;4.95;;;;;;;19.03;90.97;101208.81;5043552;28;20143;-78
2022/08/05 01:51:30;;;;;;;10.90;5.03;;;;;;;19.08;91.55;101226.63;5044724;28;20063;-83
2022/08/05 01:53:58;;;;;;;9.63;4.90;;;;;;;19.03;91.66;101231.69;5059430;28;20030;-78
2022/08/05 01:56:29;;;;;;;10.70;4.32;;;;;;;18.90;93.38;101221.97;5030252;28;20041;-80
2022/08/05 01:58:57;;;;;;;6.72;4.05;;;;;;;18.89;93.86;101227.41;5050166;28;20040;-77
2022/08/05 02:01:26;;;;;;;16.10;5.63;;;;;;;18.90;93.99;101237.72;5048590;28;20033;-81
2022/08/05 02:03:54;;;;;;;8.40;4.93;;;;;;;18.92;94.26;101246.22;5079273;28;20040;-80
2022/08/05 02:06:20;;;;;;;8.80;4.63;;;;;;;18.96;94.75;101249.25;5045230;28;20025;-81
2022/08/05 02:08:46;;;;;;;6.00;4.10;;;;;;;18.97;94.96;101254.31;5049003;28;20044;-79
2022/08/05 02:11:14;;;;;;;7.07;4.07;;;;;;;18.98;95.71;101257.75;5031596;28;20476;-78
2022/08/05 02:13:48;;;;;;;13.70;5.00;;;;;;;18.99;96.50;101249.66;5046322;28;20059;-78
2022/08/05 02:16:35;;;;;;;11.93;6.10;;;;;;;18.99;97.03;101254.91;5062686;28;20033;-78
2022/08/05 02:19:30;;;;;;;16.17;6.15;;;;;;;18.98;97.66;101248.03;5044100;28;20037;-77
2022/08/05 02:22:12;;;;;;;9.30;5.25;;;;;;;18.98;97.86;101250.66;5045049;28;20039;-77
2022/08/05 02:24:40;;;;;;;11.13;6.00;;;;;;;18.88;97.26;101236.31;5043085;28;20485;-76
2022/08/05 02:27:09;;;;;;;13.02;6.25;;;;;;;18.85;97.55;101237.50;5044088;28;20471;-76
2022/08/05 02:29:35;;;;;;;11.43;5.85;;;;;;;18.81;97.36;101234.47;5030844;28;20032;-76
2022/08/05 02:32:02;;;;;;;10.57;6.38;;;;;;;18.78;97.94;101221.72;5052501;28;20087;-77
2022/08/05 02:34:31;;;;;;;7.22;4.60;;;;;;;18.80;98.34;101203.13;5047159;28;20472;-76
2022/08/05 02:37:01;;;;;;;8.98;5.03;;;;;;;18.82;97.80;101196.69;5047997;28;20075;-76
2022/08/05 02:39:33;;;;;;;9.88;5.97;;;;;;;18.81;98.04;101200.31;5040483;28;20028;-77
2022/08/05 02:42:00;;;;;;;10.48;5.75;;;;;;;18.78;97.92;101187.56;5044422;28;20029;-76
2022/08/05 02:44:27;;;;;;;18.98;7.97;;;;;;;18.65;97.39;101171.81;5046434;28;20029;-76
2022/08/05 02:46:56;;;;;;;14.15;6.70;;;;;;;18.56;97.83;101152.78;5043170;28;20661;-76
2022/08/05 02:49:22;;;;;;;8.82;5.75;;;;;;;18.53;98.48;101134.00;5040086;28;20564;-77
2022/08/05 02:51:49;;;;;;;10.02;6.72;;;;;;;18.51;98.53;101107.94;5060555;28;20021;-76
2022/08/05 02:54:16;;;;;;;17.73;8.05;;;;;;;18.43;98.96;101087.94;5048383;28;20037;-77
2022/08/05 02:56:42;;;;;;;11.90;6.93;;;;;;;18.37;99.48;101078.25;5047877;28;20033;-77
2022/08/05 02:59:10;;;;;;;17.27;7.78;;;;;;;18.24;100.00;101063.28;5044709;28;20075;-77
2022/08/05 03:01:39;;;;;;;12.90;6.07;;;;;;;18.24;100.00;101044.91;5048163;28;20098;-78
2022/08/05 03:04:06;;;;;;;9.23;6.30;;;;;;;18.29;100.00;101062.72;5031379;28;20763;-77
2022/08/05 03:06:33;;;;;;;14.77;6.95;;;;;;;18.37;100.00;101096.63;5029351;28;20102;-77
2022/08/05 03:08:59;;;;;;;14.70;7.68;;;;;;;18.41;100.00;101126.72;5044845;28;20123;-77
2022/08/05 03:11:26;;;;;;;15.95;7.70;;;;;;;18.44;100.00;101139.44;5044843;28;20516;-77
2022/08/05 03:13:52;;;;;;;13.15;7.55;;;;;;;18.47;100.00;101120.66;5050702;28;20094;-78
2022/08/05 03:16:19;;;;;;;14.10;7.22;;;;;;;18.49;100.00;101109.97;5048255;28;20029;-77
2022/08/05 03:18:44;;;;;;;9.60;6.70;;;;;;;18.52;100.00;101129.78;5047788;28;20032;-76
2022/08/05 03:21:10;;;;;;;10.93;7.82;;;;;;;18.60;100.00;101138.25;5054957;28;20037;-77
2022/08/05 03:23:39;;;;;;;13.15;7.40;;;;;;;18.70;100.00;101158.06;5046079;28;20045;-77
2022/08/05 03:26:05;;;;;;;14.18;8.05;;;;;;;18.65;100.00;101171.81;5049231;28;20098;-78
2022/08/05 03:28:31;;;;;;;12.35;7.57;;;;;;;18.63;100.00;101184.31;5047010;28;20395;-78
2022/08/05 03:30:58;;;;;;;14.38;8.10;;;;;;;18.62;100.00;101195.81;5062242;28;20120;-77
2022/08/05 03:33:26;;;;;;;11.18;7.82;;;;;;;18.58;100.00;101199.88;5035285;28;20551;-77
2022/08/05 03:35:52;;;;;;;12.30;8.50;;;;;;;18.59;100.00;101214.59;5031734;28;20029;-77
2022/08/05 03:38:18;;;;;;;13.45;9.10;;;;;;;18.60;100.00;101219.66;5032743;28;20086;-77
2022/08/05 03:40:45;;;;;;;15.00;8.05;;;;;;;18.57;100.00;101217.44;5044690;28;20033;-77
2022/08/05 03:43:11;;;;;;;10.75;6.95;;;;;;;18.54;100.00;101209.16;5046579;28;20029;-77
2022/08/05 03:45:36;;;;;;;12.65;6.82;;;;;;;18.55;100.00;101202.88;5047028;28;20029;-76
2022/08/05 03:48:02;;;;;;;15.13;9.15;;;;;;;18.53;100.00;101200.44;5061157;28;20032;-77
2022/08/05 03:50:39;;;;;;;12.23;7.47;;;;;;;18.51;100.00;101197.22;5045999;28;20477;-77
2022/08/05 03:53:12;;;;;;;13.75;7.82;;;;;;;18.51;100.00;101184.09;5061237;28;20040;-78
2022/08/05 03:55:52;;;;;;;12.68;9.18;;;;;;;18.47;100.00;101172.38;5049609;28;20017;-77
2022/08/05 03:58:23;;;;;;;15.30;10.20;;;;;;;18.49;100.00;101167.72;5046282;28;20118;-77
2022/08/05 04:00:52;;;;;;;14.57;9.07;;;;;;;18.48;100.00;101166.91;5050857;28;20036;-77
2022/08/05 04:03:20;;;;;;;19.27;10.82;;;;;;;18.49;100.00;101167.72;5056881;28;20033;-77
2022/08/05 04:05:46;;;;;;;16.75;9.18;;;;;;;18.44;100.00;101170.13;5051534;28;20033;-77
2022/08/05 04:08:13;;;;;;;15.80;10.70;;;;;;;18.47;100.00;101170.53;5044033;28;20041;-77
2022/08/05 04:10:39;;;;;;;15.75;9.20;;;;;;;18.49;100.00;101165.91;5047311;28;20037;-77
2022/08/05 04:13:06;;;;;;;12.55;8.50;;;;;;;18.54;100.00;101144.31;5070978;28;20021;-77
2022/08/05 04:15:32;;;;;;;17.73;10.02;;;;;;;18.57;100.00;101137.84;5052843;28;20035;-77
2022/08/05 04:18:03;;;;;;;21.33;12.57;;;;;;;18.53;100.00;101145.31;5048802;28;20425;-77
2022/08/05 04:20:29;;;;;;;17.02;10.48;;;;;;;18.39;100.00;101139.22;5049136;28;20033;-77
2022/08/05 04:22:54;;;;;;;16.65;11.65;;;;;;;18.44;100.00;101144.72;5032479;28;20028;-77
2022/08/05 04:25:20;;;;;;;17.52;11.35;;;;;;;18.39;100.00;101143.69;5031948;28;20163;-77
2022/08/05 04:27:45;;;;;;;16.15;9.32;;;;;;;18.36;100.00;101144.06;5052697;28;20124;-77
2022/08/05 04:30:11;;;;;;;20.00;12.13;;;;;;;18.34;100.00;101146.88;5049647;28;20041;-77
2022/08/05 04:32:36;;;;;;;16.33;11.20;;;;;;;18.35;100.00;101140.66;5057148;28;20116;-77
2022/08/05 04:35:02;;;;;;;16.13;10.77;;;;;;;18.34;100.00;101139.00;5046519;28;20401;-77
2022/08/05 04:37:28;;;;;;;17.20;11.60;;;;;;;18.29;100.00;101133.56;5045502;28;20451;-77
2022/08/05 04:39:55;;;;;;;17.15;10.93;;;;;;;18.26;100.00;101134.75;5040982;28;20037;-77
2022/08/05 04:42:20;;;;;;;19.58;12.85;;;;;;;18.25;100.00;101132.31;5036007;28;20437;-77
2022/08/05 04:44:45;;;;;;;20.98;13.40;;;;;;;18.23;100.00;101135.19;5030210;28;20094;-77
2022/08/05 04:47:11;;;;;;;19.60;12.75;;;;;;;18.27;100.00;101149.50;5050508;28;20060;-77
2022/08/05 04:49:38;;;;;;;20.10;12.13;;;;;;;18.24;100.00;101154.34;5046853;28;20323;-77
2022/08/05 04:52:04;;;;;;;19.60;12.68;;;;;;;18.22;100.00;101165.03;5047385;28;20029;-77
2022/08/05 04:54:29;;;;;;;18.17;11.57;;;;;;;18.23;100.00;101169.28;5035546;28;20119;-77
2022/08/05 04:56:55;;;;;;;12.88;9.48;;;;;;;18.24;100.00;101164.84;5033495;28;20657;-77
2022/08/05 04:59:21;;;;;;;15.02;10.60;;;;;;;18.29;100.00;101152.75;5049111;28;20404;-77
2022/08/05 05:01:51;;;;;;;19.95;11.75;;;;;;;18.32;100.00;101154.16;5046201;28;20029;-77
2022/08/05 05:04:16;;;;;;;19.85;13.18;;;;;;;18.31;100.00;101154.34;5030091;28;20040;-77
2022/08/05 05:06:42;;;;;;;17.85;11.23;;;;;;;18.31;100.00;101162.22;5049116;28;20036;-77
2022/08/05 05:09:12;;;;;;;21.80;13.15;;;;;;;18.35;100.00;101166.09;5043960;28;20031;-77
2022/08/05 05:11:37;;;;;;;16.35;10.93;;;;;;;18.28;100.00;101158.19;5048815;28;20044;-76
2022/08/05 05:14:03;;;;;;;15.52;11.20;;;;;;;18.27;100.00;101173.13;5043247;28;20037;-77
2022/08/05 05:16:28;;;;;;;16.90;10.63;;;;;;;18.28;100.00;101168.69;5029589;28;20029;-78
2022/08/05 05:18:54;;;;;;;18.85;13.57;;;;;;;18.41;100.00;101181.84;5049999;28;20162;-78
2022/08/05 05:21:19;;;;;;;17.35;11.30;;;;;;;18.34;100.00;101186.25;5048328;28;20025;-77
2022/08/05 05:23:45;;;;;;;19.83;10.70;;;;;;;18.30;100.00;101187.66;5028260;28;20781;-76
2022/08/05 05:26:10;;;;;;;20.73;11.75;;;;;;;18.30;100.00;101185.03;5044873;28;20484;-77
2022/08/05 05:28:36;;;;;;;23.38;12.68;;;;;;;18.31;100.00;101188.47;5044957;28;20032;-77
2022/08/05 05:31:01;;;;;;;17.88;11.18;;;;;;;18.39;100.00;101190.94;5045648;28;20040;-78
2022/08/05 05:33:27;;;;;;;16.08;11.60;;;;;;;18.43;100.00;101185.06;5048084;28;20033;-77
2022/08/05 05:35:52;;;;;;;24.30;12.40;;;;;;;18.22;100.00;101180.78;5045651;28;20024;-78
2022/08/05 05:38:18;;;;;;;21.80;12.20;;;;;;;18.18;100.00;101189.25;5046558;28;20036;-78
2022/08/05 05:40:43;;;;;;;16.75;11.13;;;;;;;18.19;100.00;101193.50;5029895;28;20104;-78
2022/08/05 05:43:09;;;;;;;22.05;12.60;;;;;;;18.07;100.00;101201.13;5045460;28;20040;-78
2022/08/05 05:45:34;;;;;;;21.58;12.77;;;;;;;18.05;100.00;101203.94;5049985;28;20040;-78
2022/08/05 05:48:00;;;;;;;16.38;11.52;;;;;;;18.00;100.00;101216.03;5046392;28;20465;-77
2022/08/05 05:50:26;;;;;;;17.05;9.95;;;;;;;17.92;100.00;101213.56;5046332;28;20033;-79
2022/08/05 05:52:51;;;;;;;22.33;10.32;;;;;;;17.86;99.32;101194.19;5044372;28;20044;-79
2022/08/05 05:55:17;;;;;;;17.30;9.63;;;;;;;17.87;99.67;101196.56;5030464;28;20021;-79
2022/08/05 05:57:44;;;;;;;16.42;10.90;;;;;;;17.80;99.81;101192.28;5047146;28;20025;-78
2022/08/05 06:00:19;;;;;;;21.60;11.55;;;;;;;17.79;99.80;101209.84;5058993;23;20044;-74
2022/08/05 06:02:46;;;;;;;19.92;8.85;;;;;;;17.72;100.00;101216.84;5062266;28;20099;-74
2022/08/05 06:05:13;;;;;;;21.65;9.90;;;;;;;17.64;99.60;101217.81;5045400;28;20123;-74
2022/08/05 06:07:40;;;;;;;17.02;9.68;;;;;;;17.67;99.66;101217.44;5056570;28;20036;-74
2022/08/05 06:10:07;;;;;;;13.30;9.00;;;;;;;17.67;99.62;101220.06;5046939;28;20032;-74
2022/08/05 06:12:34;;;;;;;18.45;8.70;;;;;;;17.59;99.58;101222.00;5066723;22;20470;-84
2022/08/05 06:15:01;;;;;;;17.08;7.60;;;;;;;17.52;98.00;101235.09;5034918;28;20052;-84
2022/08/05 06:17:26;;;;;;;15.18;7.65;;;;;;;17.50;97.19;101232.66;5035588;28;20473;-84
2022/08/05 06:19:52;;;;;;;13.55;6.97;;;;;;;17.51;97.90;101226.41;5048896;28;20036;-84
2022/08/05 06:22:24;;;;;;;17.42;7.43;;;;;;;17.43;96.39;101242.28;5034574;28;20082;-84
2022/08/05 06:24:50;;;;;;;15.00;6.00;;;;;;;17.41;96.19;101244.28;5014800;28;20078;-85
2022/08/05 06:27:16;;;;;;;14.57;6.70;;;;;;;17.50;96.92;101260.69;5015483;28;20060;-86
2022/08/05 06:29:41;;;;;;;14.68;5.65;;;;;;;17.52;96.13;101256.06;5028624;28;20041;-82
2022/08/05 06:32:07;;;;;;;9.25;5.63;;;;;;;17.48;96.15;101262.69;5044600;28;20111;-84
2022/08/05 06:34:33;;;;;;;14.55;6.25;;;;;;;17.52;95.72;101258.69;5032057;28;20386;-83
2022/08/05 06:36:58;;;;;;;14.32;6.28;;;;;;;17.58;95.97;101257.91;5028151;28;20044;-84
2022/08/05 06:39:24;;;;;;;20.00;6.15;;;;;;;17.57;95.89;101258.09;5042861;28;20114;-83
2022/08/05 06:41:50;;;;;;;11.85;4.93;;;;;;;17.60;96.15;101257.72;5040795;28;20029;-83
2022/08/05 06:44:15;;;;;;;41.13;18.70;;;;;;;17.63;96.71;101265.19;5041751;28;20044;-84
2022/08/05 06:46:41;;;;;;;19.48;9.95;;;;;;;17.64;96.98;101269.44;5045681;28;20056;-84
2022/08/05 06:49:06;;;;;;;12.48;5.95;;;;;;;17.63;96.79;101265.19;5027108;28;20859;-84
2022/08/05 06:51:32;;;;;;;11.32;6.07;;;;;;;17.61;96.49;101260.16;5031074;28;20033;-84
2022/08/05 06:54:02;;;;;;;12.07;5.82;;;;;;;17.67;95.56;101261.22;5030014;28;20212;-83
2022/08/05 06:56:28;;;;;;;12.40;5.93;;;;;;;17.63;96.38;101266.03;5012882;28;20048;-84
2022/08/05 06:58:54;;;;;;;10.98;5.65;;;;;;;17.55;96.61;101271.41;5029592;28;20029;-82
2022/08/05 07:01:20;;;;;;;11.32;6.50;;;;;;;17.57;96.93;101274.63;5031296;28;21024;-84
2022/08/05 07:03:45;;;;;;;9.95;5.72;;;;;;;17.64;94.87;101272.88;5028720;28;20029;-84
2022/08/05 07:06:11;;;;;;;11.27;5.63;;;;;;;17.56;94.50;101280.91;5012922;28;20043;-84
2022/08/05 07:08:36;;;;;;;10.35;5.60;;;;;;;17.54;94.79;101282.06;5013956;28;20091;-84
2022/08/05 07:11:05;;;;;;;13.35;5.53;;;;;;;17.50;93.54;101295.56;5011658;28;20033;-84
2022/08/05 07:19:01;;;;;;;7.28;4.70;;;;;;;17.36;93.49;101304.31;5040198;28;20055;-86
2022/08/05 07:21:27;;;;;;;9.55;4.05;;;;;;;17.40;92.67;101315.25;5029566;28;20850;-84
2022/08/05 07:23:52;;;;;;;10.68;4.13;;;;;;;17.36;93.04;101306.94;5030847;28;20037;-84
2022/08/05 07:26:18;;;;;;;10.25;4.38;;;;;;;17.31;92.76;101315.38;5030399;28;20017;-83
2022/08/05 07:28:43;;;;;;;9.60;4.63;;;;;;;17.18;92.53;101325.75;5044212;28;20036;-85
2022/08/05 07:31:09;;;;;;;9.05;4.55;;;;;;;17.17;92.97;101336.41;5032943;28;20033;-84
2022/08/05 07:33:34;;;;;;;8.70;3.92;;;;;;;17.19;93.17;101331.78;5030422;28;20041;-84
2022/08/05 07:36:00;;;;;;;9.95;3.50;;;;;;;17.23;93.14;101341.69;5051026;28;20039;-84
2022/08/05 07:38:41;;;;;;;10.20;4.35;;;;;;;17.29;94.20;101340.97;5050136;28;20039;-83
2022/08/05 07:41:09;;;;;;;10.02;4.13;;;;;;;17.18;93.45;101338.84;5049778;28;20131;-84
2022/08/05 07:43:34;;;;;;;10.75;4.32;;;;;;;17.15;92.75;101347.06;5033867;28;20064;-84
2022/08/05 07:46:01;;;;;;;9.15;3.97;;;;;;;17.12;93.22;101347.41;5049409;28;20102;-86
2022/08/05 07:48:26;;;;;;;9.70;4.03;;;;;;;17.17;94.06;101344.25;5035872;28;20036;-83
2022/08/05 07:50:51;;;;;;;6.45;3.58;;;;;;;17.21;93.43;101356.00;5049083;28;20028;-84
2022/08/05 07:53:17;;;;;;;6.00;3.38;;;;;;;17.25;93.34;101357.22;5028943;28;20045;-84
2022/08/05 07:55:42;;;;;;;9.52;4.65;;;;;;;17.28;93.59;101362.13;5034961;28;20057;-83
2022/08/05 07:58:08;;;;;;;9.00;3.20;;;;;;;17.28;93.80;101362.13;5029686;28;20033;-83
2022/08/05 08:00:33;;;;;;;6.25;3.47;;;;;;;17.20;92.33;101368.28;5032722;28;20410;-84
2022/08/05 08:02:59;;;;;;;7.00;3.90;;;;;;;17.22;92.38;101373.34;5012797;28;20029;-84
2022/08/05 08:05:26;;;;;;;9.07;4.20;;;;;;;17.24;92.37;101376.59;5033058;28;20060;-84
2022/08/05 08:07:54;;;;;;;11.10;3.72;;;;;;;17.18;92.80;101378.16;5033646;28;20412;-84
2022/08/05 08:10:20;;;;;;;8.70;3.17;;;;;;;17.23;92.69;101391.47;5036380;28;20106;-85
2022/08/05 08:12:46;;;;;;;9.93;3.60;;;;;;;17.20;92.22;101391.06;5050849;28;20044;-85
2022/08/05 08:15:11;;;;;;;6.18;3.45;;;;;;;17.18;93.17;101391.25;5015705;28;20037;-84
2022/08/05 08:17:37;;;;;;;7.82;3.38;;;;;;;17.18;93.59;101395.66;5047188;28;20044;-84
2022/08/05 08:20:04;;;;;;;10.95;4.38;;;;;;;17.20;93.00;101391.88;5031806;28;20028;-83
2022/08/05 08:22:30;;;;;;;7.97;2.97;;;;;;;17.14;92.69;101387.38;5051924;28;20021;-83
2022/08/05 08:24:56;;;;;;;7.28;4.00;;;;;;;17.17;92.42;101381.75;5020496;28;20972;-84
2022/08/05 08:27:21;;;;;;;10.38;3.92;;;;;;;17.18;91.59;101393.88;5040570;28;20032;-84
2022/08/05 08:29:47;;;;;;;8.55;3.38;;;;;;;17.18;92.33;101395.66;5019059;28;20040;-85
2022/08/05 08:32:12;;;;;;;10.65;3.60;;;;;;;17.19;92.51;101399.91;5033201;28;20116;-84
2022/08/05 08:34:38;;;;;;;10.93;3.50;;;;;;;17.23;91.40;101391.47;5032521;28;20350;-83
2022/08/05 08:37:03;;;;;;;7.43;3.65;;;;;;;17.19;90.50;101384.19;5034343;28;20032;-84
2022/08/05 08:39:29;;;;;;;11.60;3.50;;;;;;;17.21;89.94;101383.00;5049220;28;21460;-85
2022/08/05 08:41:55;;;;;;;6.13;3.28;;;;;;;17.21;90.62;101393.47;5030315;28;20049;-84
2022/08/05 08:44:24;;;;;;;7.15;2.83;;;;;;;17.29;91.05;101400.41;5031689;28;20120;-84
2022/08/05 08:46:50;;;;;;;5.20;2.97;;;;;;;17.47;90.00;101403.41;5035392;28;20025;-84
2022/08/05 08:49:18;;;;;;;8.00;4.05;;;;;;;17.48;90.55;101409.50;5029799;28;20038;-84
2022/08/05 08:51:52;;;;;;;9.25;2.90;;;;;;;17.47;89.66;101418.34;5029091;28;20045;-84
2022/08/05 08:54:18;;;;;;;9.80;3.08;;;;;;;17.56;90.41;101417.22;5020906;28;20033;-88
2022/08/05 08:56:43;;;;;;;7.35;3.65;;;;;;;17.66;90.46;101415.09;5037541;28;20023;-87
2022/08/05 08:59:10;;;;;;;9.13;3.05;;;;;;;17.63;89.60;101414.66;5033322;28;20112;-86
2022/08/05 09:01:35;;;;;;;7.22;3.45;;;;;;;17.67;88.79;101421.19;5028505;28;20045;-86
2022/08/05 09:04:01;;;;;;;8.93;3.10;;;;;;;17.68;87.97;101431.44;5049552;28;20044;-86
2022/08/05 09:06:28;;;;;;;6.72;3.38;;;;;;;17.71;88.70;101441.56;5031573;28;20025;-86
2022/08/05 09:08:54;;;;;;;6.20;2.63;;;;;;;17.64;88.12;101445.94;5031599;28;20033;-88
2022/08/05 09:11:20;;;;;;;7.10;3.00;;;;;;;17.69;88.55;101454.06;5047180;28;20032;-86
2022/08/05 09:13:46;;;;;;;4.47;2.85;;;;;;;17.56;87.29;101446.06;5009374;28;20486;-86
2022/08/05 09:16:12;;;;;;;9.30;4.25;;;;;;;17.62;88.06;101445.31;5026620;28;20479;-87
2022/08/05 09:18:38;;;;;;;10.93;4.35;;;;;;;17.60;88.60;101451.75;5033541;28;20072;-87
2022/08/05 09:21:04;;;;;;;6.63;2.80;;;;;;;17.71;88.54;101464.38;5045543;28;20033;-85
2022/08/05 09:23:30;;;;;;;6.68;2.55;;;;;;;17.80;88.64;101462.41;5041877;28;20036;-87
2022/08/05 09:26:10;;;;;;;7.70;3.08;;;;;;;17.98;87.06;101468.06;5028787;28;20029;-87
2022/08/05 09:28:38;;;;;;;7.07;2.53;;;;;;;18.00;87.11;101475.75;5031437;28;21309;-86
2022/08/05 09:31:10;;;;;;;14.02;3.88;;;;;;;18.00;86.82;101479.19;5034730;28;20043;-86
2022/08/05 09:34:00;;;;;;;7.38;2.85;;;;;;;18.01;86.47;101483.44;5047723;28;20576;-86
2022/08/05 09:36:38;;;;;;;7.45;2.85;;;;;;;18.04;85.92;101487.50;5032659;28;20036;-87
2022/08/05 09:39:07;;;;;;;10.80;3.45;;;;;;;18.18;85.72;101472.69;5032017;28;20308;-85
2022/08/05 09:41:32;;;;;;;5.63;2.58;;;;;;;18.36;85.78;101488.75;5032123;28;20498;-85
2022/08/05 09:43:58;;;;;;;6.60;2.42;;;;;;;18.51;84.83;101488.66;5041141;28;20037;-86
2022/08/05 09:46:28;;;;;;;6.70;2.10;;;;;;;18.79;83.21;101488.63;5011862;28;20025;-89
2022/08/05 09:48:58;;;;;;;8.75;3.20;;;;;;;19.10;83.39;101489.22;5033220;28;20464;-88
2022/08/05 09:51:38;;;;;;;8.88;3.20;;;;;;;19.36;82.50;101499.03;5013276;28;20040;-91
2022/08/05 09:54:08;;;;;;;8.65;2.80;;;;;;;19.76;79.49;101497.34;5014148;28;20120;-90
2022/08/05 09:56:36;;;;;;;7.45;2.28;;;;;;;19.99;79.21;101498.78;5042671;28;20415;-87
2022/08/05 09:59:06;;;;;;;6.45;2.22;;;;;;;20.11;76.08;101499.81;5021683;28;20490;-86
2022/08/05 10:01:35;;;;;;;8.10;3.03;;;;;;;20.32;75.71;101500.59;5030252;28;20502;-85
2022/08/05 10:04:07;;;;;;;7.53;2.33;;;;;;;20.76;75.33;101501.81;5031894;28;20025;-89
2022/08/05 10:06:33;;;;;;;7.38;2.15;;;;;;;21.03;72.96;101513.06;5038047;28;20021;-86
2022/08/05 10:09:14;;;;;;;5.93;2.78;;;;;;;20.97;74.01;101506.81;5029229;28;20536;-87
2022/08/05 10:11:40;;;;;;;5.10;2.50;;;;;;;20.91;70.26;101517.38;5013462;28;20036;-85
2022/08/05 10:14:38;;;;;;;3.97;1.70;;;;;;;20.87;68.47;101519.63;5035875;28;20117;-87
2022/08/05 10:17:14;;;;;;;5.25;2.17;;;;;;;20.74;70.64;101520.44;4981727;28;20040;-87
2022/08/05 10:19:41;;;;;;;5.18;2.17;;;;;;;20.80;71.58;101519.63;5044841;28;20067;-88
2022/08/05 10:22:09;;;;;;;6.57;2.22;;;;;;;20.84;72.81;101519.22;5010348;28;20049;-87
2022/08/05 10:24:36;;;;;;;6.85;2.33;;;;;;;20.65;71.50;101529.59;5029243;28;20442;-85
2022/08/05 10:27:01;;;;;;;4.93;2.15;;;;;;;20.69;72.18;101525.53;5027052;28;20544;-84
2022/08/05 10:29:31;;;;;;;5.20;2.38;;;;;;;20.88;71.16;101525.69;5031650;28;20045;-87
2022/08/05 10:31:56;;;;;;;10.15;2.58;;;;;;;20.94;71.36;101528.28;5010363;28;20107;-86
2022/08/05 10:34:22;;;;;;;5.70;2.35;;;;;;;21.07;72.47;101522.16;5029372;28;20028;-88
2022/08/05 10:36:48;;;;;;;6.45;2.28;;;;;;;21.26;71.90;101519.66;5044644;28;20032;-87
2022/08/05 10:39:20;;;;;;;9.07;2.83;;;;;;;21.47;71.76;101518.59;5015028;28;20096;-87
2022/08/05 10:42:01;;;;;;;14.38;3.20;;;;;;;21.54;68.74;101517.53;5048375;28;20037;-85
2022/08/05 10:44:30;;;;;;;10.43;3.20;;;;;;;21.42;69.08;101523.66;5046508;28;20125;-85
2022/08/05 10:46:55;;;;;;;7.50;2.30;;;;;;;21.58;69.05;101520.56;5026131;28;20040;-84
2022/08/05 10:49:24;;;;;;;9.57;3.38;;;;;;;21.70;68.86;101526.78;5030496;28;20044;-84
2022/08/05 10:51:56;;;;;;;7.78;2.88;;;;;;;21.78;67.98;101534.44;5045670;28;20123;-85
2022/08/05 10:54:23;;;;;;;5.43;2.20;;;;;;;21.78;67.10;101536.28;5017246;28;20120;-88
2022/08/05 10:56:55;;;;;;;6.38;2.42;;;;;;;21.98;66.06;101536.13;5015197;28;20036;-88
2022/08/05 10:59:27;;;;;;;4.82;1.77;;;;;;;22.18;64.56;101538.63;5044484;28;20036;-86
2022/08/05 11:02:12;;;;;;;5.67;2.37;;;;;;;22.55;63.98;101534.28;5033040;28;21711;-84
2022/08/05 11:04:46;;;;;;;9.18;2.33;;;;;;;22.57;64.07;101539.34;5029772;28;20112;-85
2022/08/05 11:07:15;;;;;;;7.50;2.88;;;;;;;22.50;63.52;101534.13;5033921;28;20029;-84
2022/08/05 11:09:49;;;;;;;7.93;2.10;;;;;;;22.36;62.85;101537.91;5054573;28;20037;-86
2022/08/05 11:12:43;;;;;;;4.72;2.35;;;;;;;22.03;64.46;101543.41;5049769;28;20029;-83
2022/08/05 11:15:08;;;;;;;6.47;2.00;;;;;;;21.91;64.42;101546.75;5032173;28;20044;-86
2022/08/05 11:17:37;;;;;;;7.32;2.40;;;;;;;21.70;64.89;101545.25;5053283;28;20181;-83
2022/08/05 11:20:07;;;;;;;6.10;2.20;;;;;;;21.74;65.01;101553.56;5021121;28;20051;-85
2022/08/05 11:22:42;;;;;;;7.30;2.90;;;;;;;21.71;65.62;101548.69;5035887;28;20029;-85
2022/08/05 11:25:30;;;;;;;8.40;2.63;;;;;;;22.15;65.24;101547.81;5036764;28;20036;-85
2022/08/05 11:28:16;;;;;;;5.07;2.17;;;;;;;22.29;62.55;101553.81;5021629;28;20037;-84